createdAt,value
2019-04-26T00:00:25.733Z,11.63
2019-04-26T00:02:59.386Z,12.80
2019-04-26T00:05:35.454Z,9.30
2019-04-26T00:08:00.155Z,18.03
2019-04-26T00:10:54.274Z,19.67
2019-04-26T00:16:59.966Z,13.77
2019-04-26T00:19:29.733Z,15.47
2019-04-26T00:21:59.448Z,11.53
2019-04-26T00:24:30.775Z,13.13
2019-04-26T00:27:00.947Z,15.63
2019-04-26T00:29:30.312Z,16.97
2019-04-26T00:32:00.934Z,19.60
2019-04-26T00:34:30.221Z,12.83
2019-04-26T00:36:59.491Z,12.97
2019-04-26T00:39:28.757Z,11.50
2019-04-26T00:41:59.062Z,11.87
2019-04-26T00:44:28.646Z,16.83
2019-04-26T00:47:00.362Z,11.00
2019-04-26T00:49:42.739Z,14.20
2019-04-26T00:52:02.610Z,8.40
2019-04-26T00:54:32.861Z,11.50
2019-04-26T00:57:03.619Z,11.33
2019-04-26T00:59:34.355Z,14.47
2019-04-26T01:02:09.864Z,15.43
2019-04-26T01:04:39.113Z,17.07
2019-04-26T01:07:08.374Z,12.50
2019-04-26T01:09:37.602Z,11.63
2019-04-26T01:12:06.893Z,14.07
2019-04-26T01:14:36.155Z,13.57
2019-04-26T01:17:06.433Z,16.33
2019-04-26T01:19:37.250Z,14.23
2019-04-26T01:22:09.774Z,18.30
2019-04-26T01:24:42.070Z,17.60
2019-04-26T01:27:12.588Z,12.17
2019-04-26T01:29:44.066Z,13.27
2019-04-26T01:32:13.908Z,14.63
2019-04-26T01:37:34.526Z,11.87
2019-04-26T01:40:09.418Z,9.50
2019-04-26T01:42:49.000Z,14.83
2019-04-26T01:45:25.789Z,15.97
2019-04-26T01:47:58.525Z,11.27
2019-04-26T01:50:31.631Z,14.63
2019-04-26T01:53:01.685Z,11.37
2019-04-26T01:55:32.766Z,10.60
2019-04-26T01:58:05.403Z,11.93
2019-04-26T02:00:43.647Z,13.37
2019-04-26T02:03:19.994Z,9.93
2019-04-26T02:05:49.658Z,13.33
2019-04-26T02:08:19.394Z,9.83
2019-04-26T02:10:49.625Z,11.60
2019-04-26T02:13:18.890Z,12.73
2019-04-26T02:15:48.372Z,13.23
2019-04-26T02:18:18.169Z,15.33
2019-04-26T02:21:03.811Z,12.13
2019-04-26T02:23:55.109Z,12.53
2019-04-26T02:26:35.119Z,16.70
2019-04-26T02:29:15.252Z,12.57
2019-04-26T02:31:47.852Z,12.80
2019-04-26T02:34:17.178Z,14.50
2019-04-26T02:36:58.108Z,12.37
2019-04-26T02:39:20.542Z,15.73
2019-04-26T02:41:52.884Z,17.90
2019-04-26T02:44:28.922Z,18.13
2019-04-26T02:47:32.709Z,15.57
2019-04-26T02:50:06.279Z,10.87
2019-04-26T02:52:44.340Z,14.00
2019-04-26T02:55:27.910Z,16.20
2019-04-26T02:57:58.791Z,13.10
2019-04-26T03:00:29.661Z,11.90
2019-04-26T03:03:06.450Z,16.60
2019-04-26T03:05:39.717Z,18.10
2019-04-26T03:08:20.811Z,19.93
2019-04-26T03:10:59.296Z,15.67
2019-04-26T03:13:56.579Z,16.77
2019-04-26T03:16:40.891Z,18.20
2019-04-26T03:19:34.078Z,15.33
2019-04-26T03:22:44.359Z,10.57
2019-04-26T03:25:40.668Z,15.87
2019-04-26T03:28:39.254Z,16.23
2019-04-26T03:31:28.230Z,15.53
2019-04-26T03:34:13.303Z,15.70
2019-04-26T03:37:27.578Z,21.40
2019-04-26T03:40:12.502Z,16.77
2019-04-26T03:43:21.407Z,18.90
2019-04-26T03:46:33.569Z,12.60
2019-04-26T03:49:54.566Z,14.43
2019-04-26T03:53:01.262Z,13.77
2019-04-26T03:56:23.242Z,13.67
2019-04-26T03:59:16.210Z,12.37
2019-04-26T04:01:55.700Z,21.27
2019-04-26T04:04:46.655Z,16.73
2019-04-26T04:07:35.679Z,11.93
2019-04-26T04:09:54.274Z,12.23
2019-04-26T04:12:33.826Z,11.37
2019-04-26T04:15:13.270Z,15.33
2019-04-26T04:18:00.528Z,15.77
2019-04-26T04:21:28.543Z,18.37
2019-04-26T04:24:16.874Z,17.63
2019-04-26T04:27:00.931Z,14.07
2019-04-26T04:30:01.192Z,16.67
2019-04-26T04:32:54.165Z,14.30
2019-04-26T04:35:26.375Z,16.47
2019-04-26T04:38:09.239Z,20.23
2019-04-26T04:40:54.654Z,15.67
2019-04-26T04:43:38.587Z,11.53
2019-04-26T04:47:24.719Z,15.97
2019-04-26T04:50:08.170Z,21.17
2019-04-26T04:53:18.422Z,28.83
2019-04-26T04:56:37.507Z,20.13
2019-04-26T04:59:12.796Z,23.37
2019-04-26T05:02:17.466Z,23.80
2019-04-26T05:05:12.870Z,24.70
2019-04-26T05:08:06.865Z,27.97
2019-04-26T05:10:47.632Z,19.87
2019-04-26T05:13:45.230Z,19.57
2019-04-26T05:17:10.794Z,29.70
2019-04-26T05:20:12.794Z,23.13
2019-04-26T05:23:21.746Z,27.63
2019-04-26T05:26:47.410Z,17.20
2019-04-26T05:30:05.086Z,13.77
2019-04-26T05:33:14.445Z,19.03
2019-04-26T05:36:04.886Z,20.93
2019-04-26T05:38:58.898Z,17.53
2019-04-26T05:42:21.383Z,17.30
2019-04-26T05:45:19.452Z,16.37
2019-04-26T05:48:10.974Z,19.53
2019-04-26T05:51:24.029Z,25.37
2019-04-26T05:54:50.823Z,18.53
2019-04-26T05:57:43.126Z,20.87
2019-04-26T06:00:42.835Z,22.57
2019-04-26T06:04:41.643Z,27.13
2019-04-26T06:07:56.314Z,22.00
2019-04-26T06:10:49.430Z,27.07
2019-04-26T06:13:41.745Z,25.37
2019-04-26T06:16:38.043Z,25.80
2019-04-26T06:19:22.798Z,23.17
2019-04-26T06:22:07.014Z,25.95
2019-04-26T06:25:24.912Z,23.98
2019-04-26T06:28:05.908Z,26.45
2019-04-26T06:30:55.420Z,25.55
2019-04-26T06:33:43.414Z,26.75
2019-04-26T06:36:22.552Z,25.68
2019-04-26T06:39:25.264Z,20.97
2019-04-26T06:42:25.066Z,19.45
2019-04-26T06:46:00.564Z,17.27
2019-04-26T06:49:17.303Z,17.40
2019-04-26T06:51:51.890Z,18.80
2019-04-26T06:54:33.980Z,20.52
2019-04-26T06:57:59.420Z,16.23
2019-04-26T07:00:44.527Z,18.17
2019-04-26T07:03:51.950Z,19.15
2019-04-26T07:06:34.948Z,20.40
2019-04-26T07:09:09.627Z,18.95
2019-04-26T07:12:27.076Z,23.87
2019-04-26T07:15:12.869Z,21.10
2019-04-26T07:18:21.458Z,26.70
2019-04-26T07:21:19.563Z,22.35
2019-04-26T07:24:32.939Z,18.77
2019-04-26T07:27:16.568Z,24.07
2019-04-26T07:29:58.038Z,17.15
2019-04-26T07:33:08.658Z,21.62
2019-04-26T07:36:12.577Z,20.48
2019-04-26T07:39:34.503Z,16.85
2019-04-26T07:42:45.583Z,16.07
2019-04-26T07:45:44.823Z,22.32
2019-04-26T07:48:41.821Z,21.33
2019-04-26T07:52:08.528Z,14.47
2019-04-26T07:55:12.910Z,13.78
2019-04-26T07:58:28.174Z,19.92
2019-04-26T08:01:14.093Z,18.87
2019-04-26T08:03:56.166Z,16.50
2019-04-26T08:06:43.791Z,23.73
2019-04-26T08:09:26.473Z,17.40
2019-04-26T08:11:51.844Z,22.17
2019-04-26T08:14:32.526Z,18.98
2019-04-26T08:17:27.865Z,13.90
2019-04-26T08:20:13.972Z,19.82
2019-04-26T08:22:54.824Z,15.70
2019-04-26T08:25:23.213Z,23.45
2019-04-26T08:27:57.999Z,19.67
2019-04-26T08:30:30.450Z,19.05
2019-04-26T08:33:10.559Z,16.10
2019-04-26T08:35:44.465Z,29.07
2019-04-26T08:38:21.019Z,17.95
2019-04-26T08:41:07.030Z,18.23
2019-04-26T08:44:11.138Z,20.97
2019-04-26T08:47:06.084Z,24.55
2019-04-26T08:49:41.990Z,22.20
2019-04-26T08:52:15.942Z,18.30
2019-04-26T08:57:24.869Z,14.25
2019-04-26T08:59:58.947Z,15.45
2019-04-26T09:02:55.922Z,12.93
2019-04-26T09:06:02.324Z,20.02
2019-04-26T09:08:39.219Z,26.85
2019-04-26T09:11:09.481Z,16.23
2019-04-26T09:13:44.253Z,20.82
2019-04-26T09:16:19.838Z,18.35
2019-04-26T09:18:54.157Z,28.60
2019-04-26T09:21:28.997Z,19.55
2019-04-26T09:24:08.523Z,25.15
2019-04-26T09:26:49.971Z,29.07
2019-04-26T09:29:37.207Z,27.00
2019-04-26T09:32:15.538Z,17.20
2019-04-26T09:34:56.946Z,25.00
2019-04-26T09:37:28.974Z,27.27
2019-04-26T09:40:10.095Z,24.60
2019-04-26T09:42:54.926Z,25.02
2019-04-26T09:45:52.278Z,26.02
2019-04-26T09:48:31.480Z,27.90
2019-04-26T09:51:00.750Z,27.58
2019-04-26T09:53:30.531Z,23.22
2019-04-26T09:55:59.903Z,33.23
2019-04-26T09:58:30.672Z,31.65
2019-04-26T10:01:00.543Z,25.23
2019-04-26T10:03:34.665Z,28.70
2019-04-26T10:06:08.289Z,30.90
2019-04-26T10:08:47.011Z,27.30
2019-04-26T10:11:18.369Z,25.55
2019-04-26T10:14:08.999Z,23.55
2019-04-26T10:16:48.434Z,30.23
2019-04-26T10:19:31.651Z,26.82
2019-04-26T10:22:02.151Z,26.85
2019-04-26T10:24:31.473Z,28.00
2019-04-26T10:27:03.311Z,32.05
2019-04-26T10:29:32.907Z,29.35
2019-04-26T10:32:02.280Z,26.95
2019-04-26T10:34:35.932Z,31.05
2019-04-26T10:37:06.175Z,32.00
2019-04-26T10:39:37.022Z,27.62
2019-04-26T10:42:06.578Z,29.77
2019-04-26T10:44:39.875Z,28.77
2019-04-26T10:47:07.869Z,29.37
2019-04-26T10:49:42.050Z,34.00
2019-04-26T10:52:53.643Z,25.60
2019-04-26T10:55:49.816Z,29.60
2019-04-26T10:58:25.981Z,29.63
2019-04-26T11:01:01.528Z,31.48
2019-04-26T11:03:30.779Z,29.75
2019-04-26T11:06:00.110Z,31.60
2019-04-26T11:08:29.491Z,25.15
2019-04-26T11:11:00.623Z,29.35
2019-04-26T11:13:30.002Z,32.70
2019-04-26T11:16:02.406Z,31.50
2019-04-26T11:18:31.625Z,28.50
2019-04-26T11:21:01.278Z,29.12
2019-04-26T11:23:30.913Z,31.75
2019-04-26T11:26:01.732Z,36.70
2019-04-26T11:28:31.206Z,32.63
2019-04-26T11:31:00.468Z,25.23
2019-04-26T11:33:29.754Z,31.07
2019-04-26T11:36:03.370Z,31.10
2019-04-26T11:38:32.407Z,29.52
2019-04-26T11:41:06.399Z,28.55
2019-04-26T11:43:33.458Z,26.65
2019-04-26T11:46:04.925Z,27.02
2019-04-26T11:48:34.495Z,42.45
2019-04-26T11:51:06.616Z,30.70
2019-04-26T11:53:36.438Z,35.70
2019-04-26T11:56:05.865Z,32.93
2019-04-26T11:58:35.354Z,31.55
2019-04-26T12:01:06.210Z,32.80
2019-04-26T12:03:35.490Z,30.12
2019-04-26T12:06:23.782Z,24.82
2019-04-26T12:08:59.111Z,37.28
2019-04-26T12:11:34.226Z,28.38
2019-04-26T12:14:00.554Z,34.75
2019-04-26T12:16:31.072Z,26.62
2019-04-26T12:19:03.819Z,32.33
2019-04-26T12:21:34.115Z,32.53
2019-04-26T12:24:06.191Z,29.75
2019-04-26T12:26:42.627Z,31.33
2019-04-26T12:29:10.506Z,34.83
2019-04-26T12:31:37.966Z,31.42
2019-04-26T12:34:10.354Z,33.80
2019-04-26T12:36:39.690Z,31.10
2019-04-26T12:39:09.785Z,27.80
2019-04-26T12:41:41.302Z,33.40
2019-04-26T12:52:55.583Z,36.08
2019-04-26T12:55:27.974Z,32.45
2019-04-26T12:57:58.297Z,34.38
2019-04-26T13:00:33.044Z,38.17
2019-04-26T13:03:03.535Z,37.45
2019-04-26T13:05:32.819Z,29.48
2019-04-26T13:08:03.140Z,34.88
2019-04-26T13:10:52.698Z,34.92
2019-04-26T13:13:37.938Z,26.20
2019-04-26T13:16:10.954Z,42.65
2019-04-26T13:18:41.188Z,34.88
2019-04-26T13:21:12.552Z,34.88
2019-04-26T13:23:41.919Z,32.40
2019-04-26T13:26:11.190Z,32.58
2019-04-26T13:28:40.458Z,38.08
2019-04-26T13:31:09.771Z,38.17
2019-04-26T13:33:39.798Z,36.60
2019-04-26T13:36:09.081Z,34.30
2019-04-26T13:38:39.378Z,39.50
2019-04-26T13:41:09.534Z,37.73
2019-04-26T13:43:40.539Z,32.08
2019-04-26T13:46:27.866Z,24.00
2019-04-26T13:49:18.018Z,37.58
2019-04-26T13:51:46.166Z,41.55
2019-04-26T13:54:16.661Z,36.10
2019-04-26T13:56:47.612Z,34.27
2019-04-26T13:59:16.922Z,23.20
2019-04-26T14:01:46.299Z,32.35
2019-04-26T14:04:15.556Z,32.48
2019-04-26T14:06:45.333Z,26.50
2019-04-26T14:09:16.919Z,30.70
2019-04-26T14:11:46.286Z,34.00
2019-04-26T14:14:16.681Z,26.17
2019-04-26T14:16:46.835Z,34.18
2019-04-26T14:19:16.893Z,29.05
2019-04-26T14:21:46.694Z,31.73
2019-04-26T14:24:37.013Z,34.70
2019-04-26T14:27:15.056Z,34.35
2019-04-26T14:29:43.593Z,31.82
2019-04-26T14:32:12.851Z,37.67
2019-04-26T14:34:45.110Z,37.00
2019-04-26T14:37:15.337Z,48.10
2019-04-26T14:39:50.589Z,47.20
2019-04-26T14:42:15.339Z,38.65
2019-04-26T14:44:49.661Z,33.13
2019-04-26T14:47:17.928Z,38.10
2019-04-26T14:49:46.646Z,36.95
2019-04-26T14:52:15.887Z,37.15
2019-04-26T14:54:46.004Z,37.98
2019-04-26T14:57:22.484Z,40.00
2019-04-26T14:59:56.809Z,41.37
2019-04-26T15:02:47.357Z,45.15
2019-04-26T15:05:49.258Z,34.55
2019-04-26T15:08:18.490Z,37.88
2019-04-26T15:10:49.206Z,39.50
2019-04-26T15:13:23.390Z,44.13
2019-04-26T15:15:53.596Z,43.33
2019-04-26T15:18:22.864Z,42.80
2019-04-26T15:20:53.191Z,33.58
2019-04-26T15:23:23.844Z,44.58
2019-04-26T15:25:54.081Z,41.65
2019-04-26T15:28:23.409Z,44.13
2019-04-26T15:30:52.846Z,52.55
2019-04-26T15:33:24.218Z,40.75
2019-04-26T15:35:56.175Z,45.30
2019-04-26T15:38:25.564Z,38.25
2019-04-26T15:41:26.451Z,44.30
2019-04-26T15:44:07.542Z,47.50
2019-04-26T15:46:55.003Z,35.73
2019-04-26T15:49:45.984Z,44.42
2019-04-26T15:52:15.344Z,44.00
2019-04-26T15:54:44.662Z,31.48
2019-04-26T15:57:14.355Z,41.77
2019-04-26T15:59:54.343Z,41.23
2019-04-26T16:02:23.028Z,35.38
2019-04-26T16:04:54.396Z,42.98
2019-04-26T16:07:27.754Z,43.20
2019-04-26T16:09:57.297Z,33.98
2019-04-26T16:12:27.242Z,42.75
2019-04-26T16:14:56.899Z,38.28
2019-04-26T16:17:27.419Z,40.88
2019-04-26T16:20:00.154Z,31.75
2019-04-26T16:22:30.073Z,41.80
2019-04-26T16:25:04.025Z,42.20
2019-04-26T16:27:32.452Z,39.45
2019-04-26T16:30:09.489Z,41.88
2019-04-26T16:33:00.559Z,20.85
2019-04-26T16:35:29.929Z,15.20
2019-04-26T16:38:06.657Z,22.15
2019-04-26T16:40:32.607Z,15.25
2019-04-26T16:43:02.162Z,14.45
2019-04-26T16:45:37.208Z,20.08
2019-04-26T16:48:04.085Z,14.10
2019-04-26T16:50:37.234Z,11.70
2019-04-26T16:53:04.412Z,8.65
2019-04-26T16:55:37.963Z,10.35
2019-04-26T16:58:07.040Z,17.52
2019-04-26T17:00:50.285Z,9.43
2019-04-26T17:03:08.097Z,7.72
2019-04-26T17:05:47.773Z,8.08
2019-04-26T17:08:10.348Z,10.15
2019-04-26T17:10:39.958Z,7.55
2019-04-26T17:13:09.294Z,20.25
2019-04-26T17:15:38.629Z,12.43
2019-04-26T17:18:10.380Z,10.50
2019-04-26T17:20:40.526Z,8.98
2019-04-26T17:23:30.114Z,15.35
2019-04-26T17:26:23.341Z,11.80
2019-04-26T17:28:55.491Z,10.67
2019-04-26T17:31:24.172Z,11.80
2019-04-26T17:33:54.159Z,17.20
2019-04-26T17:36:23.428Z,11.48
2019-04-26T17:38:52.765Z,14.70
2019-04-26T17:41:22.405Z,7.00
2019-04-26T17:43:56.011Z,12.63
2019-04-26T17:46:22.621Z,10.50
2019-04-26T17:48:52.004Z,8.80
2019-04-26T17:51:23.190Z,8.23
2019-04-26T17:54:20.452Z,6.87
2019-04-26T17:56:26.115Z,7.93
2019-04-26T17:58:56.250Z,14.20
2019-04-26T18:01:41.826Z,12.10
2019-04-26T18:03:57.877Z,12.90
2019-04-26T18:06:29.933Z,10.10
2019-04-26T18:08:58.471Z,11.73
2019-04-26T18:11:27.788Z,9.40
2019-04-26T18:13:57.120Z,8.47
2019-04-26T18:16:29.493Z,11.37
2019-04-26T18:19:17.048Z,8.60
2019-04-26T18:21:59.845Z,8.17
2019-04-26T18:24:32.250Z,12.27
2019-04-26T18:27:00.382Z,13.17
2019-04-26T18:29:30.509Z,9.20
2019-04-26T18:32:03.599Z,11.93
2019-04-26T18:34:36.728Z,14.27
2019-04-26T18:37:07.483Z,13.83
2019-04-26T18:39:37.137Z,8.80
2019-04-26T18:42:06.443Z,7.37
2019-04-26T18:44:39.352Z,15.63
2019-04-26T18:47:20.378Z,7.73
2019-04-26T18:49:57.131Z,10.37
2019-04-26T18:52:26.230Z,7.50
2019-04-26T18:55:16.160Z,4.50
2019-04-26T18:57:47.386Z,6.17
2019-04-26T19:00:26.524Z,7.03
2019-04-26T19:02:55.435Z,6.43
2019-04-26T19:05:29.852Z,7.63
2019-04-26T19:07:56.936Z,7.43
2019-04-26T19:10:29.357Z,3.80
2019-04-26T19:13:00.144Z,8.17
2019-04-26T19:15:49.032Z,10.67
2019-04-26T19:18:24.890Z,6.77
2019-04-26T19:21:16.286Z,8.13
2019-04-26T19:23:45.549Z,5.37
2019-04-26T19:26:15.192Z,6.13
2019-04-26T19:28:44.650Z,6.33
2019-04-26T19:31:13.943Z,4.63
2019-04-26T19:33:43.202Z,3.10
2019-04-26T19:36:13.849Z,3.23
2019-04-26T19:38:49.315Z,3.10
2019-04-26T19:41:17.317Z,3.80
2019-04-26T19:43:47.865Z,10.83
2019-04-26T19:46:27.709Z,3.43
2019-04-26T19:49:15.906Z,3.27
2019-04-26T19:52:16.197Z,7.27
2019-04-26T19:54:51.229Z,5.53
2019-04-26T19:57:23.851Z,3.07
2019-04-26T19:59:53.711Z,4.63
2019-04-26T20:02:26.283Z,8.23
2019-04-26T20:04:54.071Z,5.23
2019-04-26T20:07:24.169Z,2.93
2019-04-26T20:09:56.339Z,7.60
2019-04-26T20:12:29.504Z,29.90
2019-04-26T20:14:58.521Z,6.13
2019-04-26T20:17:30.550Z,7.13
2019-04-26T20:19:59.783Z,6.73
2019-04-26T20:22:31.837Z,3.77
2019-04-26T20:25:05.111Z,6.80
2019-04-26T20:27:35.936Z,6.30
2019-04-26T20:30:08.701Z,3.70
2019-04-26T21:59:06.519Z,2.20
2019-04-26T22:01:35.942Z,2.60
2019-04-26T22:04:06.180Z,2.97
2019-04-26T22:06:35.853Z,3.20
2019-04-26T22:09:19.582Z,6.77
2019-04-26T22:11:49.537Z,2.00
2019-04-26T22:14:27.017Z,2.40
2019-04-26T22:17:07.654Z,3.10
2019-04-26T22:20:06.725Z,2.33
2019-04-26T22:22:49.910Z,2.53
2019-04-26T22:25:22.723Z,2.67
2019-04-26T22:28:00.084Z,2.77
2019-04-26T22:30:28.713Z,1.90
2019-04-26T22:32:58.897Z,2.47
2019-04-26T22:35:28.236Z,1.80
2019-04-26T22:37:57.504Z,2.50
2019-04-26T22:40:26.859Z,3.00
2019-04-26T22:43:05.299Z,4.27
2019-04-26T22:45:46.895Z,3.03
2019-04-26T22:48:29.665Z,2.20
2019-04-26T22:50:59.653Z,2.70
2019-04-26T22:53:29.095Z,2.30
2019-04-26T22:56:01.394Z,4.07
2019-04-26T22:58:29.394Z,2.30
2019-04-26T23:01:03.484Z,2.90
2019-04-26T23:03:29.979Z,2.33
2019-04-26T23:05:59.431Z,2.37
2019-04-26T23:08:30.714Z,3.30
2019-04-26T23:11:02.436Z,3.33
2019-04-26T23:13:37.747Z,5.63
2019-04-26T23:16:33.603Z,3.37
2019-04-26T23:19:31.037Z,5.93
2019-04-26T23:22:00.349Z,3.87
2019-04-26T23:24:29.693Z,3.60
2019-04-26T23:26:58.949Z,3.57
2019-04-26T23:29:28.205Z,3.60
2019-04-26T23:31:57.458Z,3.37
2019-04-26T23:34:26.790Z,4.10
2019-04-26T23:36:56.049Z,3.80
2019-04-26T23:39:25.326Z,3.80
2019-04-26T23:41:54.659Z,3.67
2019-04-26T23:44:24.107Z,4.03
2019-04-26T23:46:54.933Z,4.17
2019-04-26T23:49:25.296Z,3.83
2019-04-26T23:51:54.769Z,3.87
2019-04-26T23:54:27.973Z,4.00
2019-04-26T23:56:57.758Z,3.97
2019-04-26T23:59:25.951Z,3.93
